sensor_id;sensor_type;location;lat;lon;timestamp;pressure;altitude;pressure_sealevel;temperature
82780;BMP280;72511;45.120;20.720;2023-11-21T00:08:10;100013.84;;;7.27
82780;BMP280;72511;45.120;20.720;2023-11-21T00:18:12;99989.78;;;7.13
82780;BMP280;72511;45.120;20.720;2023-11-21T00:28:15;100009.31;;;7.21
82780;BMP280;72511;45.120;20.720;2023-11-21T00:38:16;100005.91;;;7.17
82780;BMP280;72511;45.120;20.720;2023-11-21T00:48:20;99991.91;;;6.98
82780;BMP280;72511;45.120;20.720;2023-11-21T00:58:23;99997.91;;;7.09
82780;BMP280;72511;45.120;20.720;2023-11-21T01:08:25;99970.94;;;7.13
82780;BMP280;72511;45.120;20.720;2023-11-21T01:18:26;99971.91;;;7.30
82780;BMP280;72511;45.120;20.720;2023-11-21T01:28:28;99986.41;;;7.39
82780;BMP280;72511;45.120;20.720;2023-11-21T01:38:29;99964.22;;;7.32
82780;BMP280;72511;45.120;20.720;2023-11-21T01:48:31;99962.75;;;7.23
82780;BMP280;72511;45.120;20.720;2023-11-21T01:58:33;99945.13;;;7.19
82780;BMP280;72511;45.120;20.720;2023-11-21T02:08:34;99949.72;;;7.22
82780;BMP280;72511;45.120;20.720;2023-11-21T02:18:39;99943.69;;;7.11
82780;BMP280;72511;45.120;20.720;2023-11-21T02:28:40;99941.81;;;7.08
82780;BMP280;72511;45.120;20.720;2023-11-21T02:38:43;99938.72;;;7.09
82780;BMP280;72511;45.120;20.720;2023-11-21T02:48:44;99928.81;;;7.03
82780;BMP280;72511;45.120;20.720;2023-11-21T02:58:46;99920.38;;;7.01
82780;BMP280;72511;45.120;20.720;2023-11-21T03:08:47;99917.44;;;6.88
82780;BMP280;72511;45.120;20.720;2023-11-21T03:18:48;99916.75;;;6.81
82780;BMP280;72511;45.120;20.720;2023-11-21T03:28:50;99892.47;;;6.51
82780;BMP280;72511;45.120;20.720;2023-11-21T03:38:52;99891.34;;;6.52
82780;BMP280;72511;45.120;20.720;2023-11-21T03:48:53;99873.41;;;6.38
82780;BMP280;72511;45.120;20.720;2023-11-21T03:58:56;99907.31;;;6.29
82780;BMP280;72511;45.120;20.720;2023-11-21T04:08:58;99891.69;;;6.13
82780;BMP280;72511;45.120;20.720;2023-11-21T04:19:00;99881.06;;;5.99
82780;BMP280;72511;45.120;20.720;2023-11-21T04:29:01;99867.72;;;5.89
82780;BMP280;72511;45.120;20.720;2023-11-21T04:39:02;99864.66;;;5.90
82780;BMP280;72511;45.120;20.720;2023-11-21T04:49:04;99850.09;;;5.84
82780;BMP280;72511;45.120;20.720;2023-11-21T04:59:05;99863.97;;;5.76
82780;BMP280;72511;45.120;20.720;2023-11-21T05:09:07;99868.94;;;5.81
82780;BMP280;72511;45.120;20.720;2023-11-21T05:19:12;99846.97;;;5.93
82780;BMP280;72511;45.120;20.720;2023-11-21T05:29:14;99861.38;;;6.13
82780;BMP280;72511;45.120;20.720;2023-11-21T05:39:15;99863.94;;;6.27
82780;BMP280;72511;45.120;20.720;2023-11-21T05:49:18;99856.94;;;6.36
82780;BMP280;72511;45.120;20.720;2023-11-21T06:00:14;99874.94;;;6.39
82780;BMP280;72511;45.120;20.720;2023-11-21T06:10:16;99874.81;;;6.53
82780;BMP280;72511;45.120;20.720;2023-11-21T06:20:18;99868.50;;;6.67
82780;BMP280;72511;45.120;20.720;2023-11-21T06:30:20;99872.00;;;6.97
82780;BMP280;72511;45.120;20.720;2023-11-21T06:40:22;99869.09;;;7.11
82780;BMP280;72511;45.120;20.720;2023-11-21T06:50:24;99850.16;;;7.22
82780;BMP280;72511;45.120;20.720;2023-11-21T07:00:25;99847.25;;;7.63
82780;BMP280;72511;45.120;20.720;2023-11-21T07:10:28;99855.38;;;8.05
82780;BMP280;72511;45.120;20.720;2023-11-21T07:20:30;99839.63;;;8.27
82780;BMP280;72511;45.120;20.720;2023-11-21T07:30:31;99819.72;;;8.40
82780;BMP280;72511;45.120;20.720;2023-11-21T07:40:33;99818.09;;;8.62
82780;BMP280;72511;45.120;20.720;2023-11-21T07:50:34;99794.69;;;8.40
82780;BMP280;72511;45.120;20.720;2023-11-21T08:00:36;99807.09;;;8.73
82780;BMP280;72511;45.120;20.720;2023-11-21T08:10:39;99807.69;;;9.32
82780;BMP280;72511;45.120;20.720;2023-11-21T08:20:42;99787.41;;;10.00
82780;BMP280;72511;45.120;20.720;2023-11-21T08:30:43;99784.63;;;10.45
82780;BMP280;72511;45.120;20.720;2023-11-21T08:40:45;99807.13;;;11.17
82780;BMP280;72511;45.120;20.720;2023-11-21T08:50:47;99798.25;;;11.97
82780;BMP280;72511;45.120;20.720;2023-11-21T09:00:48;99792.97;;;12.45
82780;BMP280;72511;45.120;20.720;2023-11-21T09:10:49;99748.13;;;12.62
82780;BMP280;72511;45.120;20.720;2023-11-21T09:20:51;99736.63;;;13.07
82780;BMP280;72511;45.120;20.720;2023-11-21T09:30:52;99734.06;;;13.12
82780;BMP280;72511;45.120;20.720;2023-11-21T09:40:54;99714.16;;;13.06
82780;BMP280;72511;45.120;20.720;2023-11-21T09:50:56;99694.66;;;13.17
82780;BMP280;72511;45.120;20.720;2023-11-21T10:00:59;99673.72;;;13.26
82780;BMP280;72511;45.120;20.720;2023-11-21T10:11:02;99679.84;;;13.72
82780;BMP280;72511;45.120;20.720;2023-11-21T10:21:05;99663.81;;;13.74
82780;BMP280;72511;45.120;20.720;2023-11-21T10:31:07;99665.94;;;13.79
82780;BMP280;72511;45.120;20.720;2023-11-21T10:41:11;99636.16;;;13.84
82780;BMP280;72511;45.120;20.720;2023-11-21T10:51:17;99621.31;;;13.85
82780;BMP280;72511;45.120;20.720;2023-11-21T11:01:20;99633.25;;;13.88
82780;BMP280;72511;45.120;20.720;2023-11-21T11:11:22;99641.69;;;13.99
82780;BMP280;72511;45.120;20.720;2023-11-21T11:21:37;99635.47;;;13.98
82780;BMP280;72511;45.120;20.720;2023-11-21T11:31:53;99673.16;;;13.91
82780;BMP280;72511;45.120;20.720;2023-11-21T11:41:57;99643.50;;;13.24
82780;BMP280;72511;45.120;20.720;2023-11-21T12:02:40;99647.59;;;13.29
82780;BMP280;72511;45.120;20.720;2023-11-21T12:12:49;99642.44;;;13.31
82780;BMP280;72511;45.120;20.720;2023-11-21T12:22:52;99625.41;;;13.21
82780;BMP280;72511;45.120;20.720;2023-11-21T12:32:55;99625.84;;;12.93
82780;BMP280;72511;45.120;20.720;2023-11-21T12:42:58;99640.03;;;12.70
82780;BMP280;72511;45.120;20.720;2023-11-21T12:53:08;99635.88;;;12.29
82780;BMP280;72511;45.120;20.720;2023-11-21T13:03:13;99646.34;;;12.18
82780;BMP280;72511;45.120;20.720;2023-11-21T13:13:17;99622.41;;;11.86
82780;BMP280;72511;45.120;20.720;2023-11-21T13:23:19;99640.03;;;11.82
82780;BMP280;72511;45.120;20.720;2023-11-21T13:33:20;99659.28;;;11.84
82780;BMP280;72511;45.120;20.720;2023-11-21T13:43:29;99650.38;;;11.74
82780;BMP280;72511;45.120;20.720;2023-11-21T13:53:32;99666.13;;;11.67
82780;BMP280;72511;45.120;20.720;2023-11-21T14:03:34;99668.09;;;11.45
82780;BMP280;72511;45.120;20.720;2023-11-21T14:13:45;99680.13;;;11.44
82780;BMP280;72511;45.120;20.720;2023-11-21T14:23:49;99691.25;;;11.24
82780;BMP280;72511;45.120;20.720;2023-11-21T14:33:51;99700.50;;;11.36
82780;BMP280;72511;45.120;20.720;2023-11-21T14:43:52;99704.22;;;11.29
82780;BMP280;72511;45.120;20.720;2023-11-21T14:53:58;99713.22;;;11.26
82780;BMP280;72511;45.120;20.720;2023-11-21T15:04:11;99702.56;;;10.98
82780;BMP280;72511;45.120;20.720;2023-11-21T15:14:31;99703.91;;;10.81
82780;BMP280;72511;45.120;20.720;2023-11-21T15:24:33;99709.22;;;10.84
82780;BMP280;72511;45.120;20.720;2023-11-21T15:34:35;99713.34;;;10.76
82780;BMP280;72511;45.120;20.720;2023-11-21T15:44:38;99720.78;;;10.85
82780;BMP280;72511;45.120;20.720;2023-11-21T15:54:39;99709.97;;;10.85
82780;BMP280;72511;45.120;20.720;2023-11-21T16:04:41;99713.84;;;10.71
82780;BMP280;72511;45.120;20.720;2023-11-21T16:14:43;99706.28;;;10.41
82780;BMP280;72511;45.120;20.720;2023-11-21T16:24:48;99708.44;;;10.34
82780;BMP280;72511;45.120;20.720;2023-11-21T16:34:50;99715.25;;;10.51
82780;BMP280;72511;45.120;20.720;2023-11-21T16:44:52;99707.69;;;10.33
82780;BMP280;72511;45.120;20.720;2023-11-21T16:54:54;99705.16;;;10.14
82780;BMP280;72511;45.120;20.720;2023-11-21T17:04:56;99696.88;;;10.33
82780;BMP280;72511;45.120;20.720;2023-11-21T17:14:57;99713.56;;;10.44
82780;BMP280;72511;45.120;20.720;2023-11-21T17:24:59;99695.09;;;10.02
82780;BMP280;72511;45.120;20.720;2023-11-21T17:35:00;99691.78;;;9.82
82780;BMP280;72511;45.120;20.720;2023-11-21T17:45:02;99711.06;;;9.84
82780;BMP280;72511;45.120;20.720;2023-11-21T17:55:04;99703.50;;;9.91
82780;BMP280;72511;45.120;20.720;2023-11-21T18:05:07;99678.28;;;9.82
82780;BMP280;72511;45.120;20.720;2023-11-21T18:15:12;99681.22;;;9.87
82780;BMP280;72511;45.120;20.720;2023-11-21T18:25:15;99697.59;;;9.96
82780;BMP280;72511;45.120;20.720;2023-11-21T18:35:20;99687.03;;;9.86
82780;BMP280;72511;45.120;20.720;2023-11-21T18:45:22;99703.25;;;9.86
82780;BMP280;72511;45.120;20.720;2023-11-21T18:55:24;99706.63;;;9.90
82780;BMP280;72511;45.120;20.720;2023-11-21T19:05:25;99715.81;;;9.92
82780;BMP280;72511;45.120;20.720;2023-11-21T19:15:27;99713.47;;;9.94
82780;BMP280;72511;45.120;20.720;2023-11-21T19:25:35;99705.41;;;9.78
82780;BMP280;72511;45.120;20.720;2023-11-21T19:35:37;99725.66;;;9.86
82780;BMP280;72511;45.120;20.720;2023-11-21T19:45:39;99738.50;;;9.82
82780;BMP280;72511;45.120;20.720;2023-11-21T19:55:41;99740.22;;;9.76
82780;BMP280;72511;45.120;20.720;2023-11-21T20:05:42;99736.75;;;9.76
82780;BMP280;72511;45.120;20.720;2023-11-21T20:15:44;99735.34;;;9.71
82780;BMP280;72511;45.120;20.720;2023-11-21T20:25:45;99737.53;;;9.60
82780;BMP280;72511;45.120;20.720;2023-11-21T20:35:48;99756.81;;;9.62
82780;BMP280;72511;45.120;20.720;2023-11-21T20:45:49;99759.78;;;9.64
82780;BMP280;72511;45.120;20.720;2023-11-21T20:55:51;99772.25;;;9.62
82780;BMP280;72511;45.120;20.720;2023-11-21T21:05:55;99789.63;;;9.61
82780;BMP280;72511;45.120;20.720;2023-11-21T21:15:56;99794.00;;;9.55
82780;BMP280;72511;45.120;20.720;2023-11-21T21:25:57;99787.16;;;9.50
82780;BMP280;72511;45.120;20.720;2023-11-21T21:35:59;99789.78;;;9.54
82780;BMP280;72511;45.120;20.720;2023-11-21T21:46:01;99788.88;;;9.44
82780;BMP280;72511;45.120;20.720;2023-11-21T21:56:03;99794.34;;;9.57
82780;BMP280;72511;45.120;20.720;2023-11-21T22:06:04;99796.59;;;9.74
82780;BMP280;72511;45.120;20.720;2023-11-21T22:16:06;99790.63;;;9.67
82780;BMP280;72511;45.120;20.720;2023-11-21T22:26:13;99792.63;;;9.79
82780;BMP280;72511;45.120;20.720;2023-11-21T22:36:15;99796.19;;;9.76
82780;BMP280;72511;45.120;20.720;2023-11-21T22:46:17;99784.66;;;9.59
82780;BMP280;72511;45.120;20.720;2023-11-21T22:56:18;99802.13;;;9.55
82780;BMP280;72511;45.120;20.720;2023-11-21T23:06:22;99787.97;;;9.35
82780;BMP280;72511;45.120;20.720;2023-11-21T23:16:24;99779.69;;;9.42
82780;BMP280;72511;45.120;20.720;2023-11-21T23:26:26;99785.28;;;9.63
82780;BMP280;72511;45.120;20.720;2023-11-21T23:36:27;99792.56;;;9.66
82780;BMP280;72511;45.120;20.720;2023-11-21T23:46:29;99805.06;;;9.44
82780;BMP280;72511;45.120;20.720;2023-11-21T23:56:30;99812.59;;;9.21
